Time;durP1;ratioP1;P1;durP2;ratioP2;P2;SDS_P1;SDS_P2;PMS_P1;PMS_P2;Temp;Humidity;BMP_temperature;BMP_pressure;BME280_temperature;BME280_humidity;BME280_pressure;Samples;Min_cycle;Max_cycle;Signal;HPM_P1;HPM_P2
2022/05/24 00:01:03;;;;;;;77.47;38.92;;;;;;;14.06;nan;98969.88;5032433;28;20045;-68
2022/05/24 00:03:31;;;;;;;90.47;39.45;;;;;;;14.06;nan;98962.13;5025987;28;20726;-67
2022/05/24 00:05:58;;;;;;;72.78;37.72;;;;;;;14.02;nan;98968.38;5034391;28;20042;-67
2022/05/24 00:08:25;;;;;;;75.18;38.30;;;;;;;14.04;nan;98959.59;5021518;28;20074;-66
2022/05/24 00:10:54;;;;;;;83.50;39.05;;;;;;;14.03;nan;98962.28;5014139;28;20050;-67
2022/05/24 00:13:22;;;;;;;68.63;37.15;;;;;;;13.96;nan;98959.22;5029393;28;20045;-67
2022/05/24 00:15:51;;;;;;;72.90;39.72;;;;;;;13.93;nan;98951.63;5032032;28;20048;-68
2022/05/24 00:18:25;;;;;;;76.10;39.50;;;;;;;13.96;nan;98956.63;5031378;28;20084;-68
2022/05/24 00:20:57;;;;;;;63.47;36.25;;;;;;;13.97;nan;98960.88;5027982;28;20049;-68
2022/05/24 00:23:27;;;;;;;78.43;38.58;;;;;;;13.97;nan;98961.72;5032838;28;20038;-68
2022/05/24 00:25:59;;;;;;;72.50;37.03;;;;;;;13.99;nan;98956.44;5020565;28;20048;-66
2022/05/24 00:28:30;;;;;;;69.25;36.75;;;;;;;13.97;nan;98966.06;5019635;28;20046;-66
2022/05/24 00:30:59;;;;;;;69.07;37.40;;;;;;;13.98;nan;98963.41;5028010;28;20486;-68
2022/05/24 00:33:27;;;;;;;61.95;35.60;;;;;;;13.95;nan;98952.34;5025783;28;20050;-67
2022/05/24 00:35:55;;;;;;;65.38;35.67;;;;;;;13.95;nan;98958.38;5021327;28;20038;-67
2022/05/24 00:38:36;;;;;;;70.40;37.10;;;;;;;13.97;nan;98964.31;5032566;28;20045;-68
2022/05/24 00:41:14;;;;;;;63.95;35.30;;;;;;;14.00;nan;98962.44;5029583;28;20034;-68
2022/05/24 00:43:53;;;;;;;61.78;34.05;;;;;;;14.01;nan;98959.78;5024951;28;20137;-66
2022/05/24 00:46:29;;;;;;;62.13;34.97;;;;;;;13.98;nan;98967.72;5030526;28;20045;-65
2022/05/24 00:49:07;;;;;;;68.68;34.83;;;;;;;13.97;nan;98979.00;5027693;28;20503;-65
2022/05/24 00:52:14;;;;;;;58.25;34.85;;;;;;;13.92;nan;98966.31;5026275;28;20072;-66
2022/05/24 00:54:46;;;;;;;53.63;33.95;;;;;;;13.94;nan;98971.41;5019064;28;20112;-66
2022/05/24 00:57:39;;;;;;;51.20;30.88;;;;;;;13.98;nan;98971.16;5031926;28;20504;-67
2022/05/24 01:00:19;;;;;;;54.22;30.75;;;;;;;13.98;nan;98952.19;5024305;28;20050;-67
2022/05/24 01:03:07;;;;;;;44.83;27.75;;;;;;;13.91;nan;98959.47;5021998;28;20046;-67
2022/05/24 01:05:53;;;;;;;50.35;29.52;;;;;;;13.81;nan;98964.34;5033512;28;20480;-67
2022/05/24 01:08:24;;;;;;;46.17;28.63;;;;;;;13.73;nan;98968.25;5037149;28;20929;-67
2022/05/24 01:11:13;;;;;;;42.40;26.33;;;;;;;13.69;nan;98971.94;5027664;28;21212;-66
2022/05/24 01:13:42;;;;;;;38.85;24.65;;;;;;;13.68;nan;98972.88;5024753;28;20074;-67
2022/05/24 01:16:12;;;;;;;39.67;23.35;;;;;;;13.65;nan;98963.50;5033168;28;20050;-67
2022/05/24 01:18:43;;;;;;;37.42;22.75;;;;;;;13.58;nan;98970.75;5031648;28;20045;-67
2022/05/24 01:21:16;;;;;;;34.55;22.05;;;;;;;13.48;nan;98964.44;5031929;28;20519;-65
2022/05/24 01:24:23;;;;;;;32.35;21.20;;;;;;;13.39;nan;98958.00;5029693;28;20049;-65
2022/05/24 01:26:57;;;;;;;37.42;20.88;;;;;;;13.32;nan;98959.22;5027689;28;20061;-67
2022/05/24 01:29:26;;;;;;;39.70;21.80;;;;;;;13.27;nan;98966.38;5014506;28;20579;-68
2022/05/24 01:37:31;;;;;;;35.05;21.67;;;;;;;13.11;nan;98964.63;5018755;28;20133;-68
2022/05/24 01:39:59;;;;;;;31.45;19.63;;;;;;;13.08;nan;98966.50;5030802;28;20049;-68
2022/05/24 01:42:27;;;;;;;35.22;19.90;;;;;;;13.06;nan;98961.44;5028013;28;20053;-67
2022/05/24 01:45:26;;;;;;;34.35;20.55;;;;;;;13.03;nan;98956.41;5012957;28;20054;-68
2022/05/24 01:48:04;;;;;;;36.47;19.58;;;;;;;12.99;nan;98954.94;5016896;28;20519;-68
2022/05/24 01:50:34;;;;;;;31.60;18.52;;;;;;;12.93;nan;98952.66;5031343;28;20061;-68
2022/05/24 01:53:21;;;;;;;27.85;15.90;;;;;;;12.84;nan;98951.41;5029770;28;20539;-68
2022/05/24 01:55:53;;;;;;;27.73;16.45;;;;;;;12.82;nan;98951.44;5024215;28;20044;-69
2022/05/24 01:58:26;;;;;;;29.10;16.65;;;;;;;12.81;nan;98948.97;5026016;28;20041;-69
2022/05/24 02:01:01;;;;;;;23.95;15.73;;;;;;;12.79;nan;98950.78;5025738;28;20776;-68
2022/05/24 02:03:37;;;;;;;30.83;16.33;;;;;;;12.74;nan;98954.47;5029680;28;20126;-69
2022/05/24 02:06:27;;;;;;;23.30;14.10;;;;;;;12.71;nan;98956.38;5026464;28;20039;-69
2022/05/24 02:08:54;;;;;;;23.20;13.10;;;;;;;12.62;nan;98964.56;5028984;28;20060;-69
2022/05/24 02:11:27;;;;;;;21.88;11.65;;;;;;;12.56;nan;98968.31;5030621;28;20053;-68
2022/05/24 02:14:05;;;;;;;26.60;13.38;;;;;;;12.56;nan;98955.41;5030753;28;20062;-68
2022/05/24 02:16:41;;;;;;;20.85;12.05;;;;;;;12.51;nan;98944.44;5030325;28;20045;-69
2022/05/24 02:19:12;;;;;;;16.23;10.20;;;;;;;12.47;nan;98958.41;5028124;28;20045;-68
2022/05/24 02:21:45;;;;;;;18.48;9.95;;;;;;;12.41;nan;98957.81;5032016;28;20041;-69
2022/05/24 02:24:23;;;;;;;15.93;9.60;;;;;;;12.37;nan;98951.13;5029429;28;20049;-68
2022/05/24 02:26:52;;;;;;;17.90;8.98;;;;;;;12.34;nan;98963.38;5031836;28;20552;-69
2022/05/24 02:29:22;;;;;;;17.65;8.90;;;;;;;12.30;nan;98956.69;5027767;28;20093;-68
2022/05/24 02:31:51;;;;;;;18.27;8.27;;;;;;;12.24;nan;98966.41;5024553;28;20050;-69
2022/05/24 02:34:18;;;;;;;15.93;8.32;;;;;;;12.23;nan;98966.50;5015899;28;20043;-69
2022/05/24 02:36:45;;;;;;;18.27;8.32;;;;;;;12.20;nan;98970.06;5022351;28;20052;-69
2022/05/24 02:39:12;;;;;;;17.00;8.32;;;;;;;12.19;nan;98972.72;5027420;28;20053;-69
2022/05/24 02:41:44;;;;;;;16.02;7.95;;;;;;;12.14;nan;98962.59;5028113;28;20048;-69
2022/05/24 02:44:15;;;;;;;15.48;8.05;;;;;;;12.14;nan;98972.09;5030379;28;20053;-70
2022/05/24 02:46:46;;;;;;;13.27;8.13;;;;;;;12.13;nan;98973.00;5026504;28;20539;-68
2022/05/24 02:49:13;;;;;;;15.40;7.45;;;;;;;12.12;nan;98972.16;5025499;28;20498;-68
2022/05/24 02:51:44;;;;;;;13.70;7.35;;;;;;;12.09;nan;98983.47;5019872;28;20038;-67
2022/05/24 02:54:11;;;;;;;13.77;6.82;;;;;;;12.05;nan;98979.41;5029823;28;20061;-67
2022/05/24 02:56:38;;;;;;;15.55;7.28;;;;;;;12.03;nan;98975.19;5029475;28;20038;-69
2022/05/24 02:59:05;;;;;;;14.68;7.65;;;;;;;12.00;nan;98970.19;5019785;28;20046;-69
2022/05/24 03:01:32;;;;;;;17.35;7.60;;;;;;;11.97;nan;98968.53;5026546;28;20049;-67
2022/05/24 03:04:01;;;;;;;17.05;7.07;;;;;;;11.94;nan;98961.78;5031377;28;20096;-68
2022/05/24 03:06:28;;;;;;;12.23;6.18;;;;;;;11.94;nan;98960.97;5033624;28;20049;-67
2022/05/24 03:14:27;;;;;;;12.25;5.93;;;;;;;11.90;nan;98944.81;5033360;28;20056;-68
2022/05/24 03:16:54;;;;;;;10.40;5.90;;;;;;;11.90;nan;98957.72;5033782;28;20042;-67
2022/05/24 03:19:22;;;;;;;14.85;5.75;;;;;;;11.90;nan;98956.84;5027278;28;20042;-68
2022/05/24 03:21:50;;;;;;;12.95;4.78;;;;;;;11.89;nan;98956.03;5031521;28;20054;-67
2022/05/24 03:24:18;;;;;;;11.85;4.75;;;;;;;11.89;nan;98957.75;5019748;28;20073;-68
2022/05/24 03:26:45;;;;;;;9.80;5.03;;;;;;;11.85;nan;98969.16;5014480;28;20101;-67
2022/05/24 03:29:13;;;;;;;12.43;5.03;;;;;;;11.85;nan;98972.56;5030485;28;20038;-68
2022/05/24 03:31:42;;;;;;;11.95;5.55;;;;;;;11.81;nan;98973.59;5031582;28;20046;-67
2022/05/24 03:34:09;;;;;;;13.13;5.53;;;;;;;11.79;nan;98976.25;5026784;28;20104;-68
2022/05/24 03:36:36;;;;;;;14.63;5.93;;;;;;;11.80;nan;98982.28;5034647;28;20073;-68
2022/05/24 03:39:03;;;;;;;12.75;4.85;;;;;;;11.80;nan;98987.44;5025400;28;20038;-68
2022/05/24 03:41:31;;;;;;;11.45;5.43;;;;;;;11.81;nan;98982.19;5022262;28;20100;-66
2022/05/24 03:43:58;;;;;;;10.88;5.50;;;;;;;11.81;nan;98979.63;5034407;28;20042;-67
2022/05/24 03:46:25;;;;;;;12.07;6.03;;;;;;;11.84;nan;98965.72;5032928;28;20038;-68
2022/05/24 03:48:52;;;;;;;11.32;5.22;;;;;;;11.80;nan;98956.47;5031223;28;20241;-68
2022/05/24 03:51:20;;;;;;;12.57;5.78;;;;;;;11.76;nan;98955.75;5032332;28;20042;-68
2022/05/24 03:53:47;;;;;;;13.40;5.35;;;;;;;11.80;nan;98959.88;5032907;28;20105;-68
2022/05/24 03:56:16;;;;;;;12.30;5.35;;;;;;;11.84;nan;98970.88;5031772;28;20049;-69
2022/05/24 03:58:43;;;;;;;11.65;5.13;;;;;;;11.85;nan;98975.13;5028073;28;20042;-68
2022/05/24 04:01:10;;;;;;;11.25;5.00;;;;;;;11.85;nan;98982.06;5025664;28;20088;-68
2022/05/24 04:03:38;;;;;;;11.73;5.40;;;;;;;11.86;nan;98992.28;5021520;28;20042;-68
2022/05/24 04:06:05;;;;;;;10.15;5.10;;;;;;;11.91;nan;98982.56;5032773;28;20041;-68
2022/05/24 04:08:35;;;;;;;11.70;4.93;;;;;;;11.98;nan;98985.75;5029611;28;20046;-69
2022/05/24 04:11:08;;;;;;;13.00;5.20;;;;;;;12.01;nan;98980.44;5032359;28;20038;-68
2022/05/24 04:13:54;;;;;;;12.77;5.05;;;;;;;12.07;nan;99005.13;5027295;28;20077;-68
2022/05/24 04:16:43;;;;;;;9.05;5.00;;;;;;;12.13;nan;99016.91;5017457;28;20046;-68
2022/05/24 04:19:30;;;;;;;13.43;5.75;;;;;;;12.10;nan;99021.28;5030251;28;20050;-68
2022/05/24 04:21:59;;;;;;;12.88;5.30;;;;;;;12.15;nan;99036.56;5036160;28;20057;-68
2022/05/24 04:24:26;;;;;;;10.55;5.53;;;;;;;12.19;nan;99037.25;5030014;28;20526;-68
2022/05/24 04:26:54;;;;;;;12.48;5.22;;;;;;;12.17;nan;99031.31;5027803;28;20142;-67
2022/05/24 04:29:21;;;;;;;15.82;6.13;;;;;;;12.18;nan;99031.25;5026076;28;20511;-67
2022/05/24 04:31:49;;;;;;;12.95;6.60;;;;;;;12.22;nan;99016.47;5014597;28;20172;-67
2022/05/24 04:34:17;;;;;;;12.00;6.68;;;;;;;12.29;nan;99019.59;5013661;28;20074;-68
2022/05/24 04:36:43;;;;;;;17.65;7.22;;;;;;;12.35;nan;99016.69;5022441;28;20042;-67
2022/05/24 04:39:11;;;;;;;13.85;6.55;;;;;;;12.37;nan;99007.13;5023461;28;20037;-66
2022/05/24 04:44:25;;;;;;;13.40;7.18;;;;;;;12.45;nan;99024.84;5024556;28;20057;-67
2022/05/24 04:47:08;;;;;;;14.05;7.68;;;;;;;12.41;nan;99042.25;5030520;28;20045;-66
2022/05/24 04:49:39;;;;;;;14.65;7.10;;;;;;;12.48;nan;99053.06;5022944;28;20121;-69
2022/05/24 04:52:11;;;;;;;17.02;7.00;;;;;;;12.55;nan;99057.06;5025221;28;20045;-68
2022/05/24 04:54:40;;;;;;;13.35;7.15;;;;;;;12.62;nan;99058.41;5020222;28;20062;-68
2022/05/24 04:57:09;;;;;;;15.40;6.90;;;;;;;12.65;nan;99067.75;5027902;28;20548;-68
2022/05/24 04:59:37;;;;;;;17.52;7.15;;;;;;;12.66;nan;99056.50;5029758;28;20042;-70
2022/05/24 05:02:06;;;;;;;14.73;7.30;;;;;;;12.67;nan;99034.94;5028684;28;20132;-67
2022/05/24 05:04:36;;;;;;;14.10;6.07;;;;;;;12.71;nan;99028.72;5015262;28;20046;-67
2022/05/24 05:07:05;;;;;;;9.23;5.88;;;;;;;12.74;nan;99044.91;5029103;28;20045;-68
2022/05/24 05:09:38;;;;;;;14.50;6.13;;;;;;;12.77;nan;99054.25;5032607;28;20042;-67
2022/05/24 05:12:08;;;;;;;8.95;5.45;;;;;;;12.85;nan;99061.63;5029448;28;20045;-68
2022/05/24 05:14:39;;;;;;;10.90;5.97;;;;;;;12.91;nan;99071.63;5027090;28;20074;-68
2022/05/24 05:17:10;;;;;;;10.68;5.93;;;;;;;12.93;nan;99074.13;5031391;28;20432;-66
2022/05/24 05:19:38;;;;;;;13.98;5.32;;;;;;;12.95;nan;99093.00;5024391;28;20038;-66
2022/05/24 05:22:07;;;;;;;9.85;5.32;;;;;;;12.91;nan;99091.50;5025236;28;20041;-67
2022/05/24 05:24:35;;;;;;;9.77;4.47;;;;;;;12.84;nan;99096.13;5034479;28;20050;-67
2022/05/24 05:27:04;;;;;;;12.70;4.88;;;;;;;12.73;nan;99102.66;5029782;28;20519;-67
2022/05/24 05:32:26;;;;;;;11.35;4.30;;;;;;;12.67;nan;99094.38;5027625;28;20042;-69
2022/05/24 05:34:54;;;;;;;11.43;4.32;;;;;;;12.69;nan;99098.53;5029993;28;20148;-67
2022/05/24 05:37:21;;;;;;;12.27;4.10;;;;;;;12.70;nan;99097.63;5030452;28;20555;-66
2022/05/24 05:39:53;;;;;;;13.38;4.10;;;;;;;12.76;nan;99108.59;5030583;28;20085;-68
2022/05/24 05:42:21;;;;;;;14.45;3.88;;;;;;;12.78;nan;99107.59;5031693;28;20041;-67
2022/05/24 05:44:49;;;;;;;11.52;3.00;;;;;;;12.80;nan;99105.78;5030423;28;20080;-69
2022/05/24 05:47:18;;;;;;;7.55;3.17;;;;;;;12.78;nan;99115.34;5030456;28;20049;-68
2022/05/24 05:49:46;;;;;;;11.88;3.08;;;;;;;12.78;nan;99115.34;5026829;28;20076;-67
2022/05/24 05:52:15;;;;;;;7.80;2.83;;;;;;;12.81;nan;99110.03;5029849;28;20042;-67
2022/05/24 05:54:44;;;;;;;8.38;3.17;;;;;;;12.82;nan;99105.69;5026808;28;20527;-67
2022/05/24 05:57:12;;;;;;;9.77;3.05;;;;;;;12.80;nan;99110.94;5012751;28;20057;-68
2022/05/24 05:59:40;;;;;;;11.85;2.95;;;;;;;12.78;nan;99115.34;5027425;28;20038;-69
2022/05/24 06:02:08;;;;;;;11.32;3.10;;;;;;;12.82;nan;99116.03;5030168;28;20042;-68
2022/05/24 06:04:35;;;;;;;7.50;3.22;;;;;;;12.88;nan;99118.31;5026445;28;20041;-67
2022/05/24 06:07:05;;;;;;;13.07;3.92;;;;;;;12.93;nan;99129.25;5028841;28;20065;-68
2022/05/24 06:09:32;;;;;;;7.40;2.50;;;;;;;12.93;nan;99142.19;5030898;28;20037;-67
2022/05/24 06:12:09;;;;;;;9.05;2.72;;;;;;;12.95;nan;99148.13;5019208;28;20042;-67
2022/05/24 06:14:36;;;;;;;12.13;2.95;;;;;;;12.99;nan;99141.88;5021833;28;20038;-68
2022/05/24 06:17:26;;;;;;;8.23;2.67;;;;;;;12.99;nan;99141.06;5038959;28;20042;-68
2022/05/24 06:19:53;;;;;;;8.55;2.58;;;;;;;12.98;nan;99141.97;5038524;28;20045;-68
2022/05/24 06:22:20;;;;;;;8.20;2.63;;;;;;;12.93;nan;99152.53;5034429;28;20050;-68
2022/05/24 06:24:48;;;;;;;11.77;2.67;;;;;;;12.98;nan;99152.31;5028089;28;20049;-68
2022/05/24 06:27:21;;;;;;;6.60;2.50;;;;;;;13.07;nan;99158.78;5032305;28;20546;-68
2022/05/24 06:29:48;;;;;;;8.80;2.40;;;;;;;13.16;nan;99159.13;5026740;28;20475;-67
2022/05/24 06:32:15;;;;;;;7.20;2.63;;;;;;;13.28;nan;99162.03;5029959;28;20120;-67
2022/05/24 06:34:42;;;;;;;7.50;2.25;;;;;;;13.30;nan;99165.38;5031842;28;20500;-67
2022/05/24 06:37:11;;;;;;;8.77;2.72;;;;;;;13.32;nan;99163.56;5031229;28;20057;-67
2022/05/24 06:39:38;;;;;;;11.13;2.67;;;;;;;13.24;nan;99174.28;5032892;28;20042;-67
2022/05/24 06:42:06;;;;;;;7.25;2.67;;;;;;;13.26;nan;99169.88;5035300;28;20066;-67
2022/05/24 06:44:34;;;;;;;9.60;2.67;;;;;;;13.23;nan;99182.13;5032649;28;20050;-67
2022/05/24 06:47:01;;;;;;;8.90;2.30;;;;;;;13.26;nan;99185.38;5016502;28;20046;-67
2022/05/24 06:49:28;;;;;;;9.52;2.38;;;;;;;13.25;nan;99190.63;5030394;28;20046;-67
2022/05/24 06:51:55;;;;;;;7.47;2.47;;;;;;;13.16;nan;99190.16;5014971;28;20053;-67
2022/05/24 06:54:22;;;;;;;5.78;2.25;;;;;;;13.09;nan;99195.72;5026031;28;20058;-67
2022/05/24 06:56:56;;;;;;;7.72;2.45;;;;;;;13.17;nan;99191.03;5034928;28;20803;-67
2022/05/24 07:02:27;;;;;;;4.22;1.85;;;;;;;13.64;nan;99197.31;5032447;28;20050;-67
2022/05/24 07:05:02;;;;;;;5.82;2.15;;;;;;;13.95;nan;99196.56;5027833;28;20038;-67
2022/05/24 07:07:33;;;;;;;10.60;2.55;;;;;;;14.15;nan;99192.09;5027799;28;20042;-67
2022/05/24 07:10:03;;;;;;;5.90;1.95;;;;;;;14.31;nan;99199.88;5024158;28;20050;-68
2022/05/24 07:12:30;;;;;;;5.20;1.80;;;;;;;14.57;nan;99203.63;5018310;28;20046;-68
2022/05/24 07:14:59;;;;;;;5.80;1.80;;;;;;;14.76;nan;99194.88;5030039;28;20046;-67
2022/05/24 07:17:27;;;;;;;6.20;2.00;;;;;;;15.10;nan;99195.56;5034466;28;20512;-67
2022/05/24 07:19:54;;;;;;;9.60;1.88;;;;;;;15.21;nan;99211.31;5034401;28;20045;-67
2022/05/24 07:22:21;;;;;;;9.48;2.00;;;;;;;15.12;nan;99209.25;5034557;28;20045;-67
2022/05/24 07:24:49;;;;;;;6.85;1.80;;;;;;;15.24;nan;99223.31;5033794;28;20408;-67
2022/05/24 07:27:21;;;;;;;8.18;1.67;;;;;;;15.33;nan;99227.09;5022736;28;20168;-68
2022/05/24 07:29:50;;;;;;;8.25;1.70;;;;;;;15.38;nan;99232.88;5033814;28;20042;-67
2022/05/24 07:32:17;;;;;;;6.38;1.50;;;;;;;15.56;nan;99230.97;5030101;28;20081;-68
2022/05/24 07:34:44;;;;;;;6.68;1.50;;;;;;;15.57;nan;99234.41;5031341;28;20526;-67
2022/05/24 07:37:16;;;;;;;6.40;1.33;;;;;;;15.66;nan;99237.31;5030116;28;20523;-68
2022/05/24 07:39:44;;;;;;;4.50;1.15;;;;;;;15.51;nan;99233.00;5034558;28;20105;-67
2022/05/24 07:47:43;;;;;;;7.95;1.40;;;;;;;15.79;nan;99236.56;5014684;28;20057;-66
2022/05/24 07:50:16;;;;;;;4.90;1.08;;;;;;;15.96;nan;99238.19;5022494;28;20453;-68
2022/05/24 07:52:43;;;;;;;5.50;1.23;;;;;;;15.97;nan;99243.28;5030748;28;20183;-68
2022/05/24 07:55:10;;;;;;;7.05;1.20;;;;;;;15.99;nan;99243.19;5035621;28;20038;-68
2022/05/24 07:57:39;;;;;;;8.20;1.23;;;;;;;15.89;nan;99245.50;5033864;28;20930;-68
2022/05/24 08:00:07;;;;;;;3.53;1.05;;;;;;;15.82;nan;99246.78;5034690;28;20077;-68
2022/05/24 08:02:40;;;;;;;4.43;1.10;;;;;;;15.98;nan;99244.13;5033566;28;20129;-68
2022/05/24 08:05:10;;;;;;;7.32;0.90;;;;;;;16.09;nan;99239.13;5034625;28;20049;-68
2022/05/24 08:07:38;;;;;;;8.32;1.40;;;;;;;16.33;nan;99246.31;5034337;28;20124;-68
2022/05/24 08:10:06;;;;;;;3.47;1.00;;;;;;;16.64;nan;99248.78;5034326;28;20530;-68
2022/05/24 08:12:37;;;;;;;3.40;1.02;;;;;;;16.65;nan;99247.88;5032024;28;20042;-68
2022/05/24 08:15:10;;;;;;;9.93;1.50;;;;;;;16.52;nan;99246.03;5033303;28;20042;-68
2022/05/24 08:17:37;;;;;;;5.20;1.23;;;;;;;16.85;nan;99249.19;5033646;28;20038;-69
2022/05/24 08:20:09;;;;;;;5.93;1.30;;;;;;;17.00;nan;99244.81;5033498;28;20057;-69
2022/05/24 08:22:39;;;;;;;6.55;1.20;;;;;;;16.76;nan;99241.03;5033127;28;20076;-68
2022/05/24 08:25:10;;;;;;;4.65;0.90;;;;;;;16.83;nan;99245.88;5042628;28;20045;-69
2022/05/24 08:27:37;;;;;;;7.82;1.23;;;;;;;16.87;nan;99255.13;5039148;28;20117;-68
2022/05/24 08:30:07;;;;;;;4.00;0.90;;;;;;;16.66;nan;99265.13;5033374;28;20046;-68
2022/05/24 08:32:34;;;;;;;5.95;1.20;;;;;;;16.43;nan;99257.81;5032948;28;20092;-67
2022/05/24 08:35:02;;;;;;;13.95;1.80;;;;;;;16.18;nan;99268.88;5033610;28;20052;-68
2022/05/24 08:37:34;;;;;;;4.53;1.23;;;;;;;15.92;nan;99271.28;5033820;28;20037;-68
2022/05/24 08:40:01;;;;;;;4.85;1.50;;;;;;;16.21;nan;99267.88;5033419;28;20496;-68
2022/05/24 08:43:07;;;;;;;4.65;1.20;;;;;;;16.42;nan;99274.38;5033091;28;20038;-68
2022/05/24 08:48:44;;;;;;;4.32;1.08;;;;;;;17.04;nan;99269.69;5033587;28;20452;-68
2022/05/24 08:51:23;;;;;;;6.35;1.45;;;;;;;17.11;nan;99270.97;5032142;28;20053;-68
2022/05/24 08:54:14;;;;;;;6.03;1.38;;;;;;;17.41;nan;99277.72;5033233;28;20064;-68
2022/05/24 08:56:50;;;;;;;3.92;1.40;;;;;;;17.54;nan;99280.38;5030937;28;20042;-68
2022/05/24 08:59:29;;;;;;;9.73;2.20;;;;;;;17.93;nan;99283.00;5033104;28;20092;-68
2022/05/24 09:01:57;;;;;;;16.25;2.70;;;;;;;17.88;nan;99292.91;5032659;28;20033;-67
2022/05/24 09:04:24;;;;;;;7.40;1.90;;;;;;;17.73;nan;99279.13;5033369;28;20519;-68
2022/05/24 09:06:51;;;;;;;5.75;1.90;;;;;;;17.71;nan;99281.81;5032356;28;20034;-68
2022/05/24 09:09:29;;;;;;;4.50;1.88;;;;;;;18.12;nan;99285.22;5033136;28;20417;-70
2022/05/24 09:12:30;;;;;;;6.53;2.90;;;;;;;18.67;nan;99279.72;5032297;28;20096;-68
2022/05/24 09:15:33;;;;;;;9.43;3.25;;;;;;;19.02;nan;99295.50;5031633;28;20061;-69
2022/05/24 09:18:36;;;;;;;6.35;3.33;;;;;;;18.92;nan;99294.47;5032556;28;20038;-69
2022/05/24 09:21:03;;;;;;;5.18;3.70;;;;;;;18.24;nan;99299.19;5020736;28;20953;-69
2022/05/24 09:23:47;;;;;;;5.38;2.60;;;;;;;17.74;nan;99307.69;5032724;28;20050;-67
2022/05/24 09:26:20;;;;;;;8.55;2.58;;;;;;;17.34;nan;99321.56;5031284;28;20497;-68
2022/05/24 09:28:56;;;;;;;5.93;1.77;;;;;;;17.05;nan;99320.81;5032542;28;20042;-68
2022/05/24 09:31:43;;;;;;;6.78;1.70;;;;;;;16.86;nan;99331.50;5032242;28;20050;-68
2022/05/24 09:34:16;;;;;;;5.03;1.50;;;;;;;16.72;nan;99330.59;5032552;28;20500;-68
2022/05/24 09:36:59;;;;;;;4.20;2.08;;;;;;;16.58;nan;99334.03;5031286;28;20041;-67
2022/05/24 09:39:56;;;;;;;4.80;1.73;;;;;;;16.85;nan;99342.81;5032630;28;20081;-69
2022/05/24 09:42:33;;;;;;;8.45;1.60;;;;;;;17.38;nan;99345.63;5032504;28;20553;-68
2022/05/24 09:45:15;;;;;;;3.33;1.98;;;;;;;17.95;nan;99343.66;5031666;28;20695;-68
2022/05/24 09:47:42;;;;;;;3.95;2.10;;;;;;;18.34;nan;99331.50;5032197;28;20034;-67
2022/05/24 09:50:32;;;;;;;3.63;1.30;;;;;;;18.27;nan;99331.06;5032844;28;20841;-68
2022/05/24 09:53:02;;;;;;;8.13;1.92;;;;;;;17.98;nan;99343.50;5032467;28;20057;-69
2022/05/24 09:55:40;;;;;;;2.10;1.10;;;;;;;17.46;nan;99347.69;5031640;28;20076;-68
2022/05/24 09:58:30;;;;;;;2.55;1.50;;;;;;;16.76;nan;99349.44;5032347;28;20148;-69
2022/05/24 10:01:27;;;;;;;4.70;1.60;;;;;;;17.28;nan;99366.19;5032284;28;20681;-67
2022/05/24 10:04:17;;;;;;;4.35;1.80;;;;;;;17.44;nan;99376.44;5032545;28;20108;-67
2022/05/24 10:07:29;;;;;;;3.35;2.20;;;;;;;17.65;nan;99383.81;5031739;28;20042;-67
2022/05/24 10:10:21;;;;;;;5.32;2.70;;;;;;;17.76;nan;99378.75;5025342;28;20428;-68
2022/05/24 10:13:31;;;;;;;10.43;3.38;;;;;;;18.06;nan;99380.28;5031515;28;20050;-68
2022/05/24 10:16:17;;;;;;;3.47;3.15;;;;;;;18.41;nan;99386.66;5028922;28;20048;-67
2022/05/24 10:19:15;;;;;;;4.45;2.55;;;;;;;18.68;nan;99350.03;5031956;28;20046;-69
2022/05/24 10:22:41;;;;;;;4.80;3.10;;;;;;;18.57;nan;99379.44;5031564;28;20084;-68
2022/05/24 10:25:17;;;;;;;4.32;3.42;;;;;;;17.79;nan;99372.47;5031309;28;20042;-69
2022/05/24 10:28:05;;;;;;;6.90;3.90;;;;;;;17.57;nan;99384.28;5031610;28;20496;-69
2022/05/24 10:31:14;;;;;;;6.15;3.65;;;;;;;17.46;nan;99391.97;5032264;28;20499;-68
2022/05/24 10:40:19;;;;;;;4.15;3.60;;;;;;;18.66;nan;99398.84;5014202;28;20042;-68
2022/05/24 10:43:21;;;;;;;4.80;4.13;;;;;;;18.78;nan;99399.78;5031915;28;20043;-68
2022/05/24 10:45:58;;;;;;;6.18;4.53;;;;;;;18.60;nan;99412.34;5031016;28;20116;-68
2022/05/24 10:48:43;;;;;;;4.85;4.50;;;;;;;19.05;nan;99417.09;5031340;28;20048;-68
2022/05/24 10:51:35;;;;;;;6.15;4.65;;;;;;;18.67;nan;99402.31;5031214;28;20038;-69
2022/05/24 10:54:27;;;;;;;7.00;5.20;;;;;;;18.23;nan;99412.19;5031072;28;20528;-69
2022/05/24 10:57:22;;;;;;;6.68;4.93;;;;;;;17.78;nan;99421.16;5016098;28;20061;-69
2022/05/24 11:00:12;;;;;;;5.88;5.28;;;;;;;17.21;nan;99422.16;5031390;28;20034;-69
2022/05/24 11:03:17;;;;;;;6.15;5.55;;;;;;;16.86;nan;99425.13;5030743;28;20042;-68
2022/05/24 11:05:56;;;;;;;;;;;;;;;16.70;nan;99431.25;5031270;28;20042;-69
2022/05/24 11:08:50;;;;;;;7.13;6.45;;;;;;;16.48;nan;99439.50;5031644;28;19929;-69
2022/05/24 11:12:03;;;;;;;8.38;7.28;;;;;;;16.48;nan;99438.66;5030849;28;20041;-69
2022/05/24 11:14:47;;;;;;;12.23;7.75;;;;;;;16.70;nan;99444.25;5026016;28;20042;-69
2022/05/24 11:17:16;;;;;;;10.73;7.03;;;;;;;16.80;nan;99447.13;5031048;28;20041;-69
2022/05/24 11:19:49;;;;;;;10.38;6.78;;;;;;;16.73;nan;99440.63;5031011;28;20085;-69
2022/05/24 11:22:38;;;;;;;6.35;5.80;;;;;;;16.76;nan;99445.66;5030543;28;20049;-69
2022/05/24 11:25:30;;;;;;;16.02;5.50;;;;;;;16.93;nan;99455.06;5031383;28;20076;-69
2022/05/24 11:28:03;;;;;;;6.38;4.30;;;;;;;17.50;nan;99458.53;5034120;28;20046;-68
2022/05/24 11:30:30;;;;;;;3.55;3.13;;;;;;;17.69;nan;99443.41;5034446;28;20151;-69
2022/05/24 11:33:12;;;;;;;8.43;3.20;;;;;;;17.98;nan;99452.91;5034173;28;20053;-69
2022/05/24 11:35:53;;;;;;;3.20;2.90;;;;;;;18.56;nan;99442.16;5034257;28;20048;-68
2022/05/24 11:38:23;;;;;;;5.10;4.00;;;;;;;18.59;nan;99444.56;5031577;28;20065;-68
2022/05/24 11:41:19;;;;;;;5.32;4.05;;;;;;;18.58;nan;99440.28;5034556;28;20694;-68
2022/05/24 11:43:52;;;;;;;4.70;4.30;;;;;;;18.66;nan;99451.03;5032766;28;20463;-69
2022/05/24 11:46:34;;;;;;;4.32;3.92;;;;;;;19.04;nan;99463.22;5034596;28;20042;-68
2022/05/24 11:49:09;;;;;;;6.40;3.63;;;;;;;19.30;nan;99452.75;5031192;28;20074;-69
2022/05/24 11:51:50;;;;;;;6.43;3.40;;;;;;;19.30;nan;99459.75;5035164;28;20053;-69
2022/05/24 11:54:23;;;;;;;4.05;1.70;;;;;;;19.43;nan;99444.88;5033771;28;20054;-69
2022/05/24 11:57:00;;;;;;;6.20;2.05;;;;;;;19.37;nan;99476.66;5033919;28;20053;-69
2022/05/24 11:59:48;;;;;;;7.97;1.65;;;;;;;19.14;nan;99465.19;5027552;28;20061;-68
2022/05/24 12:02:26;;;;;;;4.85;1.92;;;;;;;18.83;nan;99465.53;5014902;28;20477;-70
2022/05/24 12:08:25;;;;;;;3.15;2.70;;;;;;;19.68;nan;99464.84;5016218;28;20097;-69
2022/05/24 12:11:06;;;;;;;4.53;3.95;;;;;;;20.33;nan;99467.16;5033566;28;20046;-69
2022/05/24 12:13:46;;;;;;;4.10;3.20;;;;;;;20.77;nan;99457.75;5033512;28;20049;-69
2022/05/24 12:16:53;;;;;;;3.90;3.50;;;;;;;21.27;nan;99474.88;5033475;28;20057;-69
2022/05/24 12:19:32;;;;;;;6.80;2.90;;;;;;;21.18;nan;99465.97;5028363;28;20061;-70
2022/05/24 12:22:09;;;;;;;2.67;2.35;;;;;;;21.20;nan;99464.06;5034006;28;20068;-69
2022/05/24 12:24:36;;;;;;;5.03;3.10;;;;;;;20.66;nan;99468.19;5031278;28;20047;-68
2022/05/24 12:27:23;;;;;;;6.70;3.63;;;;;;;19.81;nan;99475.25;5029960;28;20054;-68
2022/05/24 12:30:28;;;;;;;6.15;2.85;;;;;;;19.23;nan;99475.84;5028116;28;20045;-70
2022/05/24 12:33:11;;;;;;;4.05;1.15;;;;;;;18.50;nan;99495.56;5027817;28;20523;-67
2022/05/24 12:35:58;;;;;;;2.38;1.00;;;;;;;17.52;nan;99493.94;5030259;28;20034;-68
2022/05/24 12:38:29;;;;;;;2.03;1.17;;;;;;;16.99;nan;99492.91;5024139;28;20042;-68
2022/05/24 12:41:14;;;;;;;5.45;2.08;;;;;;;16.56;nan;99489.28;5020285;28;20124;-67
2022/05/24 12:43:50;;;;;;;4.15;2.38;;;;;;;16.57;nan;99492.72;5028674;28;20121;-68
2022/05/24 12:46:17;;;;;;;12.07;3.08;;;;;;;17.28;nan;99498.09;5025673;28;20042;-67
2022/05/24 12:48:47;;;;;;;4.55;2.50;;;;;;;17.98;nan;99492.00;5027167;28;20042;-68
2022/05/24 12:51:20;;;;;;;6.47;2.35;;;;;;;18.81;nan;99483.06;5030614;28;20030;-69
2022/05/24 12:53:47;;;;;;;3.90;3.00;;;;;;;19.48;nan;99479.34;5036951;28;20061;-68
2022/05/24 12:56:20;;;;;;;3.67;3.05;;;;;;;19.34;nan;99490.75;5038845;28;20038;-68
2022/05/24 12:58:52;;;;;;;4.05;3.75;;;;;;;19.23;nan;99475.00;5037376;28;20049;-68